Toledo, Iowa
Current Conditions -  °F | °C
As of 3:38 AM on Saturday 25 Oct 2014 (Local Time) from KMIW Reporting Station
Haze Haze  
Wind Chill:   Ceiling: Unl
Heat Index:   Visibility: 2mi
Dew Point:   Wind: 7mph
Humidity: 100%   Direction: 280°W
Pressure: 29.97"   Gusts: NA
Location:  42°N, 92.58°W
Report Text: KMIW 250838Z AUTO 28006KT 2SM BR CLR 08/08 A2997 RMK AO2 VIS 1 1/4V5 T00780078 $
Loading
Personal Weather Stations






























Interactive Weather Map New forecast layout! Learn more

10-Day Weather Forecast

Advertisements
Track Severe Weather on mobile